sensor_id;sensor_type;location;lat;lon;timestamp;P1;durP1;ratioP1;P2;durP2;ratioP2
57635;SDS011;43465;50.728;4.160;2023-07-09T00:00:54;6.85;;;5.90;;
57635;SDS011;43465;50.728;4.160;2023-07-09T00:03:21;11.38;;;6.28;;
57635;SDS011;43465;50.728;4.160;2023-07-09T00:05:47;10.77;;;6.63;;
57635;SDS011;43465;50.728;4.160;2023-07-09T00:08:27;8.77;;;6.28;;
57635;SDS011;43465;50.728;4.160;2023-07-09T00:10:56;10.35;;;6.30;;
57635;SDS011;43465;50.728;4.160;2023-07-09T00:13:23;9.30;;;6.78;;
57635;SDS011;43465;50.728;4.160;2023-07-09T00:15:49;7.93;;;6.55;;
57635;SDS011;43465;50.728;4.160;2023-07-09T00:18:16;8.77;;;6.55;;
57635;SDS011;43465;50.728;4.160;2023-07-09T00:20:42;10.27;;;6.70;;
57635;SDS011;43465;50.728;4.160;2023-07-09T00:23:13;8.40;;;6.35;;
57635;SDS011;43465;50.728;4.160;2023-07-09T00:25:42;9.38;;;6.50;;
57635;SDS011;43465;50.728;4.160;2023-07-09T00:28:15;14.35;;;6.82;;
57635;SDS011;43465;50.728;4.160;2023-07-09T00:30:49;13.25;;;6.90;;
57635;SDS011;43465;50.728;4.160;2023-07-09T00:33:15;8.32;;;6.65;;
57635;SDS011;43465;50.728;4.160;2023-07-09T00:35:43;8.48;;;6.75;;
57635;SDS011;43465;50.728;4.160;2023-07-09T00:38:18;8.90;;;6.70;;
57635;SDS011;43465;50.728;4.160;2023-07-09T00:40:47;10.57;;;7.28;;
57635;SDS011;43465;50.728;4.160;2023-07-09T00:43:32;9.82;;;7.18;;
57635;SDS011;43465;50.728;4.160;2023-07-09T00:49:09;8.50;;;6.70;;
57635;SDS011;43465;50.728;4.160;2023-07-09T00:51:39;9.52;;;6.80;;
57635;SDS011;43465;50.728;4.160;2023-07-09T00:54:24;7.75;;;6.50;;
57635;SDS011;43465;50.728;4.160;2023-07-09T00:57:01;11.30;;;6.75;;
57635;SDS011;43465;50.728;4.160;2023-07-09T00:59:31;10.07;;;6.70;;
57635;SDS011;43465;50.728;4.160;2023-07-09T01:01:58;12.52;;;7.80;;
57635;SDS011;43465;50.728;4.160;2023-07-09T01:04:25;8.85;;;6.95;;
57635;SDS011;43465;50.728;4.160;2023-07-09T01:06:53;10.10;;;7.07;;
57635;SDS011;43465;50.728;4.160;2023-07-09T01:09:20;8.80;;;6.65;;
57635;SDS011;43465;50.728;4.160;2023-07-09T01:11:47;12.20;;;6.88;;
57635;SDS011;43465;50.728;4.160;2023-07-09T01:14:13;10.30;;;6.80;;
57635;SDS011;43465;50.728;4.160;2023-07-09T01:16:52;10.02;;;7.00;;
57635;SDS011;43465;50.728;4.160;2023-07-09T01:19:24;12.57;;;7.20;;
57635;SDS011;43465;50.728;4.160;2023-07-09T01:21:57;7.57;;;6.40;;
57635;SDS011;43465;50.728;4.160;2023-07-09T01:27:17;9.90;;;7.63;;
57635;SDS011;43465;50.728;4.160;2023-07-09T01:29:45;10.60;;;7.45;;
57635;SDS011;43465;50.728;4.160;2023-07-09T01:32:14;11.02;;;6.95;;
57635;SDS011;43465;50.728;4.160;2023-07-09T01:34:40;11.73;;;6.32;;
57635;SDS011;43465;50.728;4.160;2023-07-09T01:37:06;8.70;;;6.78;;
57635;SDS011;43465;50.728;4.160;2023-07-09T01:39:32;9.75;;;6.50;;
57635;SDS011;43465;50.728;4.160;2023-07-09T01:41:57;10.18;;;6.95;;
57635;SDS011;43465;50.728;4.160;2023-07-09T01:44:23;11.95;;;6.53;;
57635;SDS011;43465;50.728;4.160;2023-07-09T01:46:48;11.48;;;5.97;;
57635;SDS011;43465;50.728;4.160;2023-07-09T01:49:15;10.10;;;5.72;;
57635;SDS011;43465;50.728;4.160;2023-07-09T01:51:41;8.63;;;6.13;;
57635;SDS011;43465;50.728;4.160;2023-07-09T01:54:07;9.18;;;6.55;;
57635;SDS011;43465;50.728;4.160;2023-07-09T01:56:33;13.52;;;6.65;;
57635;SDS011;43465;50.728;4.160;2023-07-09T01:58:59;9.73;;;6.60;;
57635;SDS011;43465;50.728;4.160;2023-07-09T02:01:26;9.52;;;6.53;;
57635;SDS011;43465;50.728;4.160;2023-07-09T02:03:53;10.98;;;6.80;;
57635;SDS011;43465;50.728;4.160;2023-07-09T02:06:19;11.52;;;6.90;;
57635;SDS011;43465;50.728;4.160;2023-07-09T02:08:45;8.05;;;6.15;;
57635;SDS011;43465;50.728;4.160;2023-07-09T02:11:11;11.13;;;7.05;;
57635;SDS011;43465;50.728;4.160;2023-07-09T02:13:36;10.73;;;6.97;;
57635;SDS011;43465;50.728;4.160;2023-07-09T02:16:02;10.25;;;6.93;;
57635;SDS011;43465;50.728;4.160;2023-07-09T02:18:28;11.13;;;7.55;;
57635;SDS011;43465;50.728;4.160;2023-07-09T02:20:54;10.27;;;6.95;;
57635;SDS011;43465;50.728;4.160;2023-07-09T02:23:20;8.32;;;6.50;;
57635;SDS011;43465;50.728;4.160;2023-07-09T02:25:50;9.30;;;6.15;;
57635;SDS011;43465;50.728;4.160;2023-07-09T02:28:16;10.88;;;6.30;;
57635;SDS011;43465;50.728;4.160;2023-07-09T02:30:41;8.50;;;6.10;;
57635;SDS011;43465;50.728;4.160;2023-07-09T02:33:07;9.63;;;5.82;;
57635;SDS011;43465;50.728;4.160;2023-07-09T02:35:33;11.18;;;6.45;;
57635;SDS011;43465;50.728;4.160;2023-07-09T02:38:00;11.15;;;6.00;;
57635;SDS011;43465;50.728;4.160;2023-07-09T02:40:26;9.40;;;5.65;;
57635;SDS011;43465;50.728;4.160;2023-07-09T02:42:52;10.88;;;6.18;;
57635;SDS011;43465;50.728;4.160;2023-07-09T02:45:18;8.25;;;6.13;;
57635;SDS011;43465;50.728;4.160;2023-07-09T02:47:43;7.78;;;6.13;;
57635;SDS011;43465;50.728;4.160;2023-07-09T02:50:09;9.20;;;6.50;;
57635;SDS011;43465;50.728;4.160;2023-07-09T02:52:35;10.65;;;6.72;;
57635;SDS011;43465;50.728;4.160;2023-07-09T02:55:00;11.35;;;6.68;;
57635;SDS011;43465;50.728;4.160;2023-07-09T02:57:26;9.65;;;6.70;;
57635;SDS011;43465;50.728;4.160;2023-07-09T02:59:51;9.60;;;7.22;;
57635;SDS011;43465;50.728;4.160;2023-07-09T03:02:17;12.98;;;7.10;;
57635;SDS011;43465;50.728;4.160;2023-07-09T03:04:43;13.27;;;7.32;;
57635;SDS011;43465;50.728;4.160;2023-07-09T03:07:08;12.00;;;6.70;;
57635;SDS011;43465;50.728;4.160;2023-07-09T03:09:34;10.68;;;7.03;;
57635;SDS011;43465;50.728;4.160;2023-07-09T03:12:00;10.77;;;7.28;;
57635;SDS011;43465;50.728;4.160;2023-07-09T03:14:25;14.75;;;7.97;;
57635;SDS011;43465;50.728;4.160;2023-07-09T03:16:51;14.27;;;7.40;;
57635;SDS011;43465;50.728;4.160;2023-07-09T03:19:17;13.90;;;7.35;;
57635;SDS011;43465;50.728;4.160;2023-07-09T03:21:42;12.15;;;7.38;;
57635;SDS011;43465;50.728;4.160;2023-07-09T03:24:08;11.00;;;7.20;;
57635;SDS011;43465;50.728;4.160;2023-07-09T03:26:34;12.52;;;8.13;;
57635;SDS011;43465;50.728;4.160;2023-07-09T03:29:00;12.80;;;8.07;;
57635;SDS011;43465;50.728;4.160;2023-07-09T03:31:26;13.50;;;7.88;;
57635;SDS011;43465;50.728;4.160;2023-07-09T03:33:51;11.23;;;8.15;;
57635;SDS011;43465;50.728;4.160;2023-07-09T03:36:17;15.45;;;8.23;;
57635;SDS011;43465;50.728;4.160;2023-07-09T03:38:45;14.35;;;8.35;;
57635;SDS011;43465;50.728;4.160;2023-07-09T03:41:10;16.73;;;9.15;;
57635;SDS011;43465;50.728;4.160;2023-07-09T03:43:36;13.50;;;8.23;;
57635;SDS011;43465;50.728;4.160;2023-07-09T03:46:02;14.45;;;8.20;;
57635;SDS011;43465;50.728;4.160;2023-07-09T03:48:28;11.35;;;7.93;;
57635;SDS011;43465;50.728;4.160;2023-07-09T03:50:54;13.77;;;8.35;;
57635;SDS011;43465;50.728;4.160;2023-07-09T03:53:19;11.85;;;8.25;;
57635;SDS011;43465;50.728;4.160;2023-07-09T03:55:46;13.20;;;8.10;;
57635;SDS011;43465;50.728;4.160;2023-07-09T03:58:17;13.98;;;8.57;;
57635;SDS011;43465;50.728;4.160;2023-07-09T04:00:43;12.85;;;8.18;;
57635;SDS011;43465;50.728;4.160;2023-07-09T04:03:09;13.40;;;8.70;;
57635;SDS011;43465;50.728;4.160;2023-07-09T04:05:35;12.07;;;8.73;;
57635;SDS011;43465;50.728;4.160;2023-07-09T04:08:01;14.63;;;8.73;;
57635;SDS011;43465;50.728;4.160;2023-07-09T04:10:28;16.42;;;8.13;;
57635;SDS011;43465;50.728;4.160;2023-07-09T04:12:54;12.68;;;7.80;;
57635;SDS011;43465;50.728;4.160;2023-07-09T04:15:19;16.15;;;7.63;;
57635;SDS011;43465;50.728;4.160;2023-07-09T04:17:45;14.90;;;7.50;;
57635;SDS011;43465;50.728;4.160;2023-07-09T04:20:11;13.10;;;7.97;;
57635;SDS011;43465;50.728;4.160;2023-07-09T04:22:37;13.70;;;7.53;;
57635;SDS011;43465;50.728;4.160;2023-07-09T04:25:04;15.43;;;8.18;;
57635;SDS011;43465;50.728;4.160;2023-07-09T04:27:31;13.95;;;8.63;;
57635;SDS011;43465;50.728;4.160;2023-07-09T04:29:57;15.10;;;8.23;;
57635;SDS011;43465;50.728;4.160;2023-07-09T04:32:23;11.65;;;7.72;;
57635;SDS011;43465;50.728;4.160;2023-07-09T04:34:48;15.13;;;7.75;;
57635;SDS011;43465;50.728;4.160;2023-07-09T04:37:14;13.10;;;6.90;;
57635;SDS011;43465;50.728;4.160;2023-07-09T04:39:44;12.98;;;7.18;;
57635;SDS011;43465;50.728;4.160;2023-07-09T04:42:13;15.45;;;7.13;;
57635;SDS011;43465;50.728;4.160;2023-07-09T04:44:40;16.27;;;9.10;;
57635;SDS011;43465;50.728;4.160;2023-07-09T04:47:06;17.40;;;8.75;;
57635;SDS011;43465;50.728;4.160;2023-07-09T04:49:32;14.77;;;8.60;;
57635;SDS011;43465;50.728;4.160;2023-07-09T04:51:58;11.65;;;8.13;;
57635;SDS011;43465;50.728;4.160;2023-07-09T04:54:24;17.52;;;8.95;;
57635;SDS011;43465;50.728;4.160;2023-07-09T04:56:51;15.05;;;8.65;;
57635;SDS011;43465;50.728;4.160;2023-07-09T04:59:17;15.10;;;7.93;;
57635;SDS011;43465;50.728;4.160;2023-07-09T05:01:43;15.98;;;8.32;;
57635;SDS011;43465;50.728;4.160;2023-07-09T05:04:09;15.55;;;8.95;;
57635;SDS011;43465;50.728;4.160;2023-07-09T05:06:34;17.95;;;8.48;;
57635;SDS011;43465;50.728;4.160;2023-07-09T05:09:00;13.70;;;8.10;;
57635;SDS011;43465;50.728;4.160;2023-07-09T05:11:26;14.13;;;7.65;;
57635;SDS011;43465;50.728;4.160;2023-07-09T05:13:52;11.90;;;7.57;;
57635;SDS011;43465;50.728;4.160;2023-07-09T05:16:18;16.38;;;7.90;;
57635;SDS011;43465;50.728;4.160;2023-07-09T05:18:45;12.55;;;7.43;;
57635;SDS011;43465;50.728;4.160;2023-07-09T05:21:11;13.38;;;8.13;;
57635;SDS011;43465;50.728;4.160;2023-07-09T05:23:37;16.08;;;8.15;;
57635;SDS011;43465;50.728;4.160;2023-07-09T05:26:02;13.38;;;8.50;;
57635;SDS011;43465;50.728;4.160;2023-07-09T05:28:29;11.40;;;7.53;;
57635;SDS011;43465;50.728;4.160;2023-07-09T05:30:55;14.68;;;9.02;;
57635;SDS011;43465;50.728;4.160;2023-07-09T05:33:21;14.23;;;9.35;;
57635;SDS011;43465;50.728;4.160;2023-07-09T05:35:47;13.23;;;10.07;;
57635;SDS011;43465;50.728;4.160;2023-07-09T05:38:13;16.55;;;10.40;;
57635;SDS011;43465;50.728;4.160;2023-07-09T05:40:40;15.63;;;12.13;;
57635;SDS011;43465;50.728;4.160;2023-07-09T05:43:07;20.10;;;13.63;;
57635;SDS011;43465;50.728;4.160;2023-07-09T05:45:33;17.92;;;13.52;;
57635;SDS011;43465;50.728;4.160;2023-07-09T05:47:59;21.95;;;17.00;;
57635;SDS011;43465;50.728;4.160;2023-07-09T05:50:25;23.55;;;17.17;;
57635;SDS011;43465;50.728;4.160;2023-07-09T05:52:51;20.90;;;16.88;;
57635;SDS011;43465;50.728;4.160;2023-07-09T05:55:17;29.88;;;20.48;;
57635;SDS011;43465;50.728;4.160;2023-07-09T05:57:42;29.35;;;23.63;;
57635;SDS011;43465;50.728;4.160;2023-07-09T06:00:08;37.28;;;28.55;;
57635;SDS011;43465;50.728;4.160;2023-07-09T06:02:34;42.35;;;36.63;;
57635;SDS011;43465;50.728;4.160;2023-07-09T06:05:00;46.97;;;39.88;;
57635;SDS011;43465;50.728;4.160;2023-07-09T06:07:26;51.40;;;38.25;;
57635;SDS011;43465;50.728;4.160;2023-07-09T06:09:52;36.33;;;30.55;;
57635;SDS011;43465;50.728;4.160;2023-07-09T06:12:18;34.58;;;26.10;;
57635;SDS011;43465;50.728;4.160;2023-07-09T06:14:44;33.08;;;25.85;;
57635;SDS011;43465;50.728;4.160;2023-07-09T06:17:11;31.73;;;27.30;;
57635;SDS011;43465;50.728;4.160;2023-07-09T06:19:37;36.40;;;30.42;;
57635;SDS011;43465;50.728;4.160;2023-07-09T06:22:03;43.17;;;32.78;;
57635;SDS011;43465;50.728;4.160;2023-07-09T06:24:29;47.83;;;36.83;;
57635;SDS011;43465;50.728;4.160;2023-07-09T06:26:55;64.32;;;51.42;;
57635;SDS011;43465;50.728;4.160;2023-07-09T06:29:20;63.95;;;52.35;;
57635;SDS011;43465;50.728;4.160;2023-07-09T06:31:46;66.40;;;55.35;;
57635;SDS011;43465;50.728;4.160;2023-07-09T06:34:12;68.15;;;58.80;;
57635;SDS011;43465;50.728;4.160;2023-07-09T06:36:38;62.53;;;50.92;;
57635;SDS011;43465;50.728;4.160;2023-07-09T06:39:04;59.15;;;50.60;;
57635;SDS011;43465;50.728;4.160;2023-07-09T06:41:30;69.95;;;59.05;;
57635;SDS011;43465;50.728;4.160;2023-07-09T06:43:57;71.63;;;56.72;;
57635;SDS011;43465;50.728;4.160;2023-07-09T06:46:23;63.15;;;53.47;;
57635;SDS011;43465;50.728;4.160;2023-07-09T06:48:49;68.60;;;54.28;;
57635;SDS011;43465;50.728;4.160;2023-07-09T06:51:14;62.50;;;54.72;;
57635;SDS011;43465;50.728;4.160;2023-07-09T06:53:40;65.55;;;52.88;;
57635;SDS011;43465;50.728;4.160;2023-07-09T06:56:08;62.33;;;52.30;;
57635;SDS011;43465;50.728;4.160;2023-07-09T06:58:34;57.03;;;45.28;;
57635;SDS011;43465;50.728;4.160;2023-07-09T07:01:01;52.55;;;44.65;;
57635;SDS011;43465;50.728;4.160;2023-07-09T07:03:29;50.40;;;44.92;;
57635;SDS011;43465;50.728;4.160;2023-07-09T07:05:57;50.15;;;42.97;;
57635;SDS011;43465;50.728;4.160;2023-07-09T07:08:23;55.00;;;43.55;;
57635;SDS011;43465;50.728;4.160;2023-07-09T07:10:51;53.33;;;41.65;;
57635;SDS011;43465;50.728;4.160;2023-07-09T07:13:30;47.42;;;38.95;;
57635;SDS011;43465;50.728;4.160;2023-07-09T07:15:57;42.78;;;36.58;;
57635;SDS011;43465;50.728;4.160;2023-07-09T07:18:23;50.65;;;39.30;;
57635;SDS011;43465;50.728;4.160;2023-07-09T07:20:49;46.90;;;36.80;;
57635;SDS011;43465;50.728;4.160;2023-07-09T07:23:15;47.00;;;35.75;;
57635;SDS011;43465;50.728;4.160;2023-07-09T07:25:41;41.45;;;32.75;;
57635;SDS011;43465;50.728;4.160;2023-07-09T07:28:07;41.67;;;34.60;;
57635;SDS011;43465;50.728;4.160;2023-07-09T07:30:33;43.90;;;36.30;;
57635;SDS011;43465;50.728;4.160;2023-07-09T07:32:59;46.63;;;35.40;;
57635;SDS011;43465;50.728;4.160;2023-07-09T07:35:24;44.50;;;34.25;;
57635;SDS011;43465;50.728;4.160;2023-07-09T07:37:50;47.15;;;37.70;;
57635;SDS011;43465;50.728;4.160;2023-07-09T07:40:15;48.22;;;39.80;;
57635;SDS011;43465;50.728;4.160;2023-07-09T07:42:41;45.25;;;35.47;;
57635;SDS011;43465;50.728;4.160;2023-07-09T07:45:07;45.85;;;36.22;;
57635;SDS011;43465;50.728;4.160;2023-07-09T07:47:33;41.28;;;31.88;;
57635;SDS011;43465;50.728;4.160;2023-07-09T07:49:59;42.47;;;33.05;;
57635;SDS011;43465;50.728;4.160;2023-07-09T07:52:25;37.90;;;30.13;;
57635;SDS011;43465;50.728;4.160;2023-07-09T07:54:52;33.70;;;27.55;;
57635;SDS011;43465;50.728;4.160;2023-07-09T07:57:18;31.73;;;26.38;;
57635;SDS011;43465;50.728;4.160;2023-07-09T07:59:44;32.30;;;25.45;;
57635;SDS011;43465;50.728;4.160;2023-07-09T08:02:11;30.63;;;21.25;;
57635;SDS011;43465;50.728;4.160;2023-07-09T08:04:39;28.88;;;21.55;;
57635;SDS011;43465;50.728;4.160;2023-07-09T08:07:05;28.75;;;21.40;;
57635;SDS011;43465;50.728;4.160;2023-07-09T08:09:32;25.63;;;20.40;;
57635;SDS011;43465;50.728;4.160;2023-07-09T08:11:58;26.05;;;19.60;;
57635;SDS011;43465;50.728;4.160;2023-07-09T08:14:24;28.42;;;21.13;;
57635;SDS011;43465;50.728;4.160;2023-07-09T08:16:50;27.42;;;20.05;;
57635;SDS011;43465;50.728;4.160;2023-07-09T08:19:17;27.75;;;19.33;;
57635;SDS011;43465;50.728;4.160;2023-07-09T08:21:44;25.80;;;20.80;;
57635;SDS011;43465;50.728;4.160;2023-07-09T08:24:10;29.13;;;21.75;;
57635;SDS011;43465;50.728;4.160;2023-07-09T08:26:35;23.15;;;17.15;;
57635;SDS011;43465;50.728;4.160;2023-07-09T08:29:03;27.85;;;20.42;;
57635;SDS011;43465;50.728;4.160;2023-07-09T08:31:29;21.98;;;15.52;;
57635;SDS011;43465;50.728;4.160;2023-07-09T08:33:54;27.08;;;19.98;;
57635;SDS011;43465;50.728;4.160;2023-07-09T08:36:20;28.65;;;21.17;;
57635;SDS011;43465;50.728;4.160;2023-07-09T08:38:46;24.02;;;18.67;;
57635;SDS011;43465;50.728;4.160;2023-07-09T08:41:45;25.67;;;18.80;;
57635;SDS011;43465;50.728;4.160;2023-07-09T08:47:07;26.73;;;21.10;;
57635;SDS011;43465;50.728;4.160;2023-07-09T08:49:54;26.95;;;17.40;;
57635;SDS011;43465;50.728;4.160;2023-07-09T08:52:31;24.63;;;18.23;;
57635;SDS011;43465;50.728;4.160;2023-07-09T08:55:09;21.00;;;16.52;;
57635;SDS011;43465;50.728;4.160;2023-07-09T08:57:40;23.80;;;16.67;;
57635;SDS011;43465;50.728;4.160;2023-07-09T09:00:26;23.55;;;17.92;;
57635;SDS011;43465;50.728;4.160;2023-07-09T09:05:39;18.85;;;15.88;;
57635;SDS011;43465;50.728;4.160;2023-07-09T09:10:53;21.65;;;15.38;;
57635;SDS011;43465;50.728;4.160;2023-07-09T09:13:26;21.25;;;14.48;;
57635;SDS011;43465;50.728;4.160;2023-07-09T09:15:54;22.50;;;17.58;;
57635;SDS011;43465;50.728;4.160;2023-07-09T09:18:27;21.17;;;15.25;;
57635;SDS011;43465;50.728;4.160;2023-07-09T09:21:03;20.50;;;16.70;;
57635;SDS011;43465;50.728;4.160;2023-07-09T09:23:40;20.90;;;16.00;;
57635;SDS011;43465;50.728;4.160;2023-07-09T09:26:24;19.15;;;15.98;;
57635;SDS011;43465;50.728;4.160;2023-07-09T09:28:55;28.25;;;20.30;;
57635;SDS011;43465;50.728;4.160;2023-07-09T09:31:21;24.63;;;18.73;;
57635;SDS011;43465;50.728;4.160;2023-07-09T09:33:51;25.70;;;18.23;;
57635;SDS011;43465;50.728;4.160;2023-07-09T09:36:21;25.20;;;18.58;;
57635;SDS011;43465;50.728;4.160;2023-07-09T09:38:48;25.42;;;19.70;;
57635;SDS011;43465;50.728;4.160;2023-07-09T09:41:22;22.02;;;17.17;;
57635;SDS011;43465;50.728;4.160;2023-07-09T09:43:53;22.77;;;18.30;;
57635;SDS011;43465;50.728;4.160;2023-07-09T09:46:24;25.15;;;19.60;;
57635;SDS011;43465;50.728;4.160;2023-07-09T09:51:23;28.50;;;19.50;;
57635;SDS011;43465;50.728;4.160;2023-07-09T09:53:50;24.60;;;18.80;;
57635;SDS011;43465;50.728;4.160;2023-07-09T09:56:26;28.05;;;18.45;;
57635;SDS011;43465;50.728;4.160;2023-07-09T09:58:55;24.30;;;18.42;;
57635;SDS011;43465;50.728;4.160;2023-07-09T10:01:25;24.52;;;19.63;;
57635;SDS011;43465;50.728;4.160;2023-07-09T10:03:55;28.25;;;22.75;;
57635;SDS011;43465;50.728;4.160;2023-07-09T10:06:28;28.50;;;21.73;;
57635;SDS011;43465;50.728;4.160;2023-07-09T10:14:58;23.58;;;18.13;;
57635;SDS011;43465;50.728;4.160;2023-07-09T10:20:38;22.00;;;16.90;;
57635;SDS011;43465;50.728;4.160;2023-07-09T10:26:41;21.75;;;14.95;;
57635;SDS011;43465;50.728;4.160;2023-07-09T10:32:02;22.10;;;13.25;;
57635;SDS011;43465;50.728;4.160;2023-07-09T10:40:20;15.05;;;11.43;;
57635;SDS011;43465;50.728;4.160;2023-07-09T10:42:59;15.95;;;11.55;;
57635;SDS011;43465;50.728;4.160;2023-07-09T10:45:39;15.48;;;9.95;;
57635;SDS011;43465;50.728;4.160;2023-07-09T10:50:41;16.98;;;9.93;;
57635;SDS011;43465;50.728;4.160;2023-07-09T10:53:12;12.45;;;8.82;;
57635;SDS011;43465;50.728;4.160;2023-07-09T10:56:34;15.47;;;9.30;;
57635;SDS011;43465;50.728;4.160;2023-07-09T11:03:50;13.27;;;9.52;;
57635;SDS011;43465;50.728;4.160;2023-07-09T11:08:58;13.88;;;9.15;;
57635;SDS011;43465;50.728;4.160;2023-07-09T11:11:33;14.35;;;9.40;;
57635;SDS011;43465;50.728;4.160;2023-07-09T11:14:27;12.98;;;8.57;;
57635;SDS011;43465;50.728;4.160;2023-07-09T11:17:03;10.32;;;7.47;;
57635;SDS011;43465;50.728;4.160;2023-07-09T11:19:31;9.43;;;7.97;;
57635;SDS011;43465;50.728;4.160;2023-07-09T11:21:57;12.15;;;6.80;;
57635;SDS011;43465;50.728;4.160;2023-07-09T11:24:34;8.25;;;7.18;;
57635;SDS011;43465;50.728;4.160;2023-07-09T11:27:25;9.07;;;6.32;;
57635;SDS011;43465;50.728;4.160;2023-07-09T11:29:59;10.95;;;7.18;;
57635;SDS011;43465;50.728;4.160;2023-07-09T11:32:26;8.88;;;7.38;;
57635;SDS011;43465;50.728;4.160;2023-07-09T11:34:53;10.32;;;6.85;;
57635;SDS011;43465;50.728;4.160;2023-07-09T11:37:23;9.32;;;6.43;;
57635;SDS011;43465;50.728;4.160;2023-07-09T11:39:51;11.95;;;8.02;;
57635;SDS011;43465;50.728;4.160;2023-07-09T11:44:53;11.98;;;6.55;;
57635;SDS011;43465;50.728;4.160;2023-07-09T11:47:34;7.80;;;6.45;;
57635;SDS011;43465;50.728;4.160;2023-07-09T11:50:20;10.95;;;6.70;;
57635;SDS011;43465;50.728;4.160;2023-07-09T11:52:56;11.65;;;6.53;;
57635;SDS011;43465;50.728;4.160;2023-07-09T11:55:33;10.18;;;6.22;;
57635;SDS011;43465;50.728;4.160;2023-07-09T11:58:08;11.40;;;6.63;;
57635;SDS011;43465;50.728;4.160;2023-07-09T12:00:37;10.80;;;6.95;;
57635;SDS011;43465;50.728;4.160;2023-07-09T12:03:15;9.47;;;7.07;;
57635;SDS011;43465;50.728;4.160;2023-07-09T12:05:49;14.75;;;7.43;;
57635;SDS011;43465;50.728;4.160;2023-07-09T12:08:27;16.30;;;7.80;;
57635;SDS011;43465;50.728;4.160;2023-07-09T12:11:04;20.10;;;9.65;;
57635;SDS011;43465;50.728;4.160;2023-07-09T12:13:37;16.23;;;8.75;;
57635;SDS011;43465;50.728;4.160;2023-07-09T12:16:04;18.00;;;8.82;;
57635;SDS011;43465;50.728;4.160;2023-07-09T12:18:43;16.02;;;9.25;;
57635;SDS011;43465;50.728;4.160;2023-07-09T12:21:09;13.27;;;8.95;;
57635;SDS011;43465;50.728;4.160;2023-07-09T12:23:35;13.48;;;8.85;;
57635;SDS011;43465;50.728;4.160;2023-07-09T12:26:02;16.27;;;8.77;;
57635;SDS011;43465;50.728;4.160;2023-07-09T12:28:29;13.13;;;9.70;;
57635;SDS011;43465;50.728;4.160;2023-07-09T12:30:55;14.85;;;9.15;;
57635;SDS011;43465;50.728;4.160;2023-07-09T12:33:23;13.00;;;8.95;;
57635;SDS011;43465;50.728;4.160;2023-07-09T12:35:52;15.40;;;8.85;;
57635;SDS011;43465;50.728;4.160;2023-07-09T12:38:23;14.30;;;9.50;;
57635;SDS011;43465;50.728;4.160;2023-07-09T12:40:51;14.40;;;9.68;;
57635;SDS011;43465;50.728;4.160;2023-07-09T12:43:19;15.73;;;10.30;;
57635;SDS011;43465;50.728;4.160;2023-07-09T12:45:51;12.63;;;9.27;;
57635;SDS011;43465;50.728;4.160;2023-07-09T12:48:19;16.20;;;9.82;;
57635;SDS011;43465;50.728;4.160;2023-07-09T12:50:49;17.13;;;11.20;;
57635;SDS011;43465;50.728;4.160;2023-07-09T12:53:19;20.08;;;11.35;;
57635;SDS011;43465;50.728;4.160;2023-07-09T12:55:46;16.38;;;11.15;;
57635;SDS011;43465;50.728;4.160;2023-07-09T12:58:24;17.77;;;11.50;;
57635;SDS011;43465;50.728;4.160;2023-07-09T13:00:53;20.17;;;11.73;;
57635;SDS011;43465;50.728;4.160;2023-07-09T13:03:20;14.07;;;10.98;;
57635;SDS011;43465;50.728;4.160;2023-07-09T13:05:57;19.42;;;11.30;;
57635;SDS011;43465;50.728;4.160;2023-07-09T13:08:25;15.98;;;11.43;;
57635;SDS011;43465;50.728;4.160;2023-07-09T13:10:52;16.50;;;11.80;;
57635;SDS011;43465;50.728;4.160;2023-07-09T13:13:19;18.98;;;11.98;;
57635;SDS011;43465;50.728;4.160;2023-07-09T13:15:56;17.95;;;12.55;;
57635;SDS011;43465;50.728;4.160;2023-07-09T13:18:25;14.95;;;11.20;;
57635;SDS011;43465;50.728;4.160;2023-07-09T13:20:51;20.80;;;12.75;;
57635;SDS011;43465;50.728;4.160;2023-07-09T13:23:28;14.80;;;11.98;;
57635;SDS011;43465;50.728;4.160;2023-07-09T13:25:57;16.10;;;12.23;;
57635;SDS011;43465;50.728;4.160;2023-07-09T13:28:30;14.65;;;11.50;;
57635;SDS011;43465;50.728;4.160;2023-07-09T13:30:57;13.23;;;9.98;;
57635;SDS011;43465;50.728;4.160;2023-07-09T13:33:32;14.90;;;10.82;;
57635;SDS011;43465;50.728;4.160;2023-07-09T13:35:58;16.30;;;11.02;;
57635;SDS011;43465;50.728;4.160;2023-07-09T13:38:23;15.45;;;10.73;;
57635;SDS011;43465;50.728;4.160;2023-07-09T13:40:51;14.32;;;9.90;;
57635;SDS011;43465;50.728;4.160;2023-07-09T13:43:23;14.18;;;10.10;;
57635;SDS011;43465;50.728;4.160;2023-07-09T13:45:56;13.73;;;10.65;;
57635;SDS011;43465;50.728;4.160;2023-07-09T13:48:23;14.00;;;9.80;;
57635;SDS011;43465;50.728;4.160;2023-07-09T13:50:50;11.55;;;10.35;;
57635;SDS011;43465;50.728;4.160;2023-07-09T13:53:18;11.63;;;10.07;;
57635;SDS011;43465;50.728;4.160;2023-07-09T13:55:49;11.50;;;8.80;;
57635;SDS011;43465;50.728;4.160;2023-07-09T13:58:16;15.52;;;9.40;;
57635;SDS011;43465;50.728;4.160;2023-07-09T14:00:44;12.13;;;8.50;;
57635;SDS011;43465;50.728;4.160;2023-07-09T14:03:17;14.02;;;8.95;;
57635;SDS011;43465;50.728;4.160;2023-07-09T14:05:45;9.50;;;8.00;;
57635;SDS011;43465;50.728;4.160;2023-07-09T14:08:11;9.13;;;8.18;;
57635;SDS011;43465;50.728;4.160;2023-07-09T14:10:38;11.98;;;8.80;;
57635;SDS011;43465;50.728;4.160;2023-07-09T14:13:04;12.05;;;8.93;;
57635;SDS011;43465;50.728;4.160;2023-07-09T14:15:30;13.95;;;8.57;;
57635;SDS011;43465;50.728;4.160;2023-07-09T14:17:56;12.80;;;8.85;;
57635;SDS011;43465;50.728;4.160;2023-07-09T14:20:22;13.55;;;8.88;;
57635;SDS011;43465;50.728;4.160;2023-07-09T14:22:48;14.45;;;9.45;;
57635;SDS011;43465;50.728;4.160;2023-07-09T14:25:19;8.00;;;7.20;;
57635;SDS011;43465;50.728;4.160;2023-07-09T14:27:47;14.75;;;8.95;;
57635;SDS011;43465;50.728;4.160;2023-07-09T14:30:16;10.80;;;7.05;;
57635;SDS011;43465;50.728;4.160;2023-07-09T14:32:44;10.90;;;8.00;;
57635;SDS011;43465;50.728;4.160;2023-07-09T14:35:14;12.10;;;7.95;;
57635;SDS011;43465;50.728;4.160;2023-07-09T14:37:43;10.55;;;7.75;;
57635;SDS011;43465;50.728;4.160;2023-07-09T14:40:10;10.75;;;7.30;;
57635;SDS011;43465;50.728;4.160;2023-07-09T14:42:37;10.50;;;6.93;;
57635;SDS011;43465;50.728;4.160;2023-07-09T14:45:04;10.57;;;7.80;;
57635;SDS011;43465;50.728;4.160;2023-07-09T14:47:40;12.05;;;8.10;;
57635;SDS011;43465;50.728;4.160;2023-07-09T14:50:07;12.68;;;8.15;;
57635;SDS011;43465;50.728;4.160;2023-07-09T14:52:33;10.77;;;6.93;;
57635;SDS011;43465;50.728;4.160;2023-07-09T14:54:58;9.38;;;6.97;;
57635;SDS011;43465;50.728;4.160;2023-07-09T14:57:25;10.48;;;6.75;;
57635;SDS011;43465;50.728;4.160;2023-07-09T14:59:51;10.95;;;7.32;;
57635;SDS011;43465;50.728;4.160;2023-07-09T15:04:47;10.40;;;7.60;;
57635;SDS011;43465;50.728;4.160;2023-07-09T15:07:13;9.48;;;7.40;;
57635;SDS011;43465;50.728;4.160;2023-07-09T15:09:39;11.85;;;7.85;;
57635;SDS011;43465;50.728;4.160;2023-07-09T15:12:07;10.18;;;7.25;;
57635;SDS011;43465;50.728;4.160;2023-07-09T15:14:43;11.10;;;6.70;;
57635;SDS011;43465;50.728;4.160;2023-07-09T15:17:12;8.48;;;6.70;;
57635;SDS011;43465;50.728;4.160;2023-07-09T15:19:38;9.85;;;6.47;;
57635;SDS011;43465;50.728;4.160;2023-07-09T15:22:04;9.65;;;7.30;;
57635;SDS011;43465;50.728;4.160;2023-07-09T15:24:32;12.23;;;8.10;;
57635;SDS011;43465;50.728;4.160;2023-07-09T15:26:59;11.52;;;7.88;;
57635;SDS011;43465;50.728;4.160;2023-07-09T15:29:26;11.23;;;7.60;;
57635;SDS011;43465;50.728;4.160;2023-07-09T15:31:53;11.38;;;8.13;;